createdAt,value
2022-11-22T00:02:38.228Z,36.5
2022-11-22T00:05:25.534Z,34.2
2022-11-22T00:08:12.752Z,36.3
2022-11-22T00:11:00.022Z,34.6
2022-11-22T00:13:47.324Z,35.2
2022-11-22T00:16:34.956Z,39.9
2022-11-22T00:19:22.155Z,38.6
2022-11-22T00:22:09.603Z,42.6
2022-11-22T00:24:57.113Z,40.1
2022-11-22T00:27:45.105Z,40.3
2022-11-22T00:30:32.452Z,41.9
2022-11-22T00:33:19.972Z,40.1
2022-11-22T00:36:07.296Z,41.2
2022-11-22T00:38:54.952Z,40.4
2022-11-22T00:41:42.724Z,44.7
2022-11-22T00:44:30.077Z,43.5
2022-11-22T00:47:17.405Z,43.5
2022-11-22T00:50:04.878Z,48.8
2022-11-22T00:52:53.520Z,45.1
2022-11-22T00:55:41.871Z,43.5
2022-11-22T00:58:30.301Z,42.3
2022-11-22T01:01:17.770Z,43.2
2022-11-22T01:04:05.252Z,38
2022-11-22T01:06:52.821Z,39.5
2022-11-22T01:09:41.150Z,41.4
2022-11-22T01:12:28.524Z,45
2022-11-22T01:15:15.776Z,47.8
2022-11-22T01:18:03.609Z,41.8
2022-11-22T01:20:50.970Z,44.6
2022-11-22T01:23:38.637Z,38.9
2022-11-22T01:26:26.506Z,43.6
2022-11-22T01:29:13.949Z,44.5
2022-11-22T01:32:01.249Z,50.9
2022-11-22T01:34:48.774Z,45.9
2022-11-22T01:37:36.068Z,50.7
2022-11-22T01:40:23.364Z,51.9
2022-11-22T01:43:11.099Z,54.6
2022-11-22T01:46:02.793Z,53
2022-11-22T01:48:53.522Z,54.7
2022-11-22T01:51:46.019Z,54.2
2022-11-22T01:54:37.363Z,49.5
2022-11-22T01:57:27.383Z,51.5
2022-11-22T02:00:19.725Z,56.1
2022-11-22T02:03:07.861Z,49.3
2022-11-22T02:05:59.267Z,45.5
2022-11-22T02:08:47.523Z,39.7
2022-11-22T02:11:44.508Z,39.3
2022-11-22T02:14:35.455Z,36.9
2022-11-22T02:17:25.235Z,33.7
2022-11-22T02:20:13.280Z,30.3
2022-11-22T02:23:02.032Z,35.4
2022-11-22T02:25:57.295Z,32.7
2022-11-22T02:28:46.086Z,30.4
2022-11-22T02:31:35.663Z,35.4
2022-11-22T02:34:27.120Z,33.6
2022-11-22T02:37:14.456Z,35.2
2022-11-22T02:40:07.612Z,35.6
2022-11-22T02:43:00.223Z,32.1
2022-11-22T02:45:50.612Z,38.1
2022-11-22T02:48:38.943Z,37.5
2022-11-22T02:51:26.978Z,32.3
2022-11-22T02:54:14.384Z,36.1
2022-11-22T02:57:02.122Z,34.6
2022-11-22T02:59:49.571Z,37.7
2022-11-22T03:02:36.892Z,38.2
2022-11-22T03:05:24.255Z,44.4
2022-11-22T03:08:11.603Z,39.1
2022-11-22T03:10:58.995Z,41.2
2022-11-22T03:13:46.424Z,47.3
2022-11-22T03:16:33.801Z,41.5
2022-11-22T03:19:21.107Z,43
2022-11-22T03:22:08.847Z,45.3
2022-11-22T03:24:59.036Z,50.9
2022-11-22T03:27:46.780Z,44.2
2022-11-22T03:30:34.586Z,51.5
2022-11-22T03:33:26.005Z,49.8
2022-11-22T03:36:13.484Z,52.1
2022-11-22T03:39:00.947Z,53.7
2022-11-22T03:41:48.573Z,48.3
2022-11-22T03:44:35.926Z,58.5
2022-11-22T03:47:23.188Z,61.8
2022-11-22T03:50:10.646Z,50.3
2022-11-22T03:52:57.964Z,49.7
2022-11-22T03:55:45.339Z,50.2
2022-11-22T03:58:32.863Z,46.9
2022-11-22T04:01:20.288Z,53.7
2022-11-22T04:04:07.609Z,54.9
2022-11-22T04:06:55.857Z,52.6
2022-11-22T04:09:43.207Z,44.7
2022-11-22T04:12:30.432Z,49.5
2022-11-22T04:15:18.046Z,53.3
2022-11-22T04:18:05.412Z,52.6
2022-11-22T04:20:55.288Z,45.7
2022-11-22T04:24:14.444Z,49
2022-11-22T04:27:33.734Z,44.6
2022-11-22T04:30:21.174Z,41.9
2022-11-22T04:35:29.963Z,42.3
2022-11-22T04:38:17.272Z,43
2022-11-22T04:41:05.307Z,47.6
2022-11-22T04:43:53.018Z,41.5
2022-11-22T04:47:12.605Z,46.9
2022-11-22T04:50:43.526Z,44.1
2022-11-22T04:54:02.875Z,36.8
2022-11-22T04:56:50.289Z,42.9
2022-11-22T04:59:37.645Z,43.7
2022-11-22T05:02:25.008Z,48.5
2022-11-22T05:05:12.210Z,41.7
2022-11-22T05:07:59.633Z,44.3
2022-11-22T05:10:47.066Z,51.2
2022-11-22T05:13:41.659Z,59.9
2022-11-22T05:16:29.380Z,46.4
2022-11-22T05:19:16.755Z,48.9
2022-11-22T05:22:04.032Z,52.9
2022-11-22T05:24:51.374Z,53.4
2022-11-22T05:27:39.427Z,51.5
2022-11-22T05:30:26.791Z,56
2022-11-22T05:33:14.454Z,52.2
2022-11-22T05:36:01.784Z,53.6
2022-11-22T05:38:50.162Z,44.5
2022-11-22T05:41:37.852Z,54.8
2022-11-22T05:44:40.196Z,57.8
2022-11-22T05:47:27.465Z,61.7
2022-11-22T05:50:19.148Z,58.7
2022-11-22T05:53:06.465Z,52
2022-11-22T05:55:54.089Z,50.5
2022-11-22T05:58:42.216Z,54.8
2022-11-22T06:01:30.387Z,59.9
2022-11-22T06:04:17.617Z,54
2022-11-22T06:07:09.805Z,60.3
2022-11-22T06:09:57.644Z,64.6
2022-11-22T06:12:45.202Z,58.6
2022-11-22T06:15:32.500Z,59.5
2022-11-22T06:18:19.804Z,58.8
2022-11-22T06:21:07.088Z,61.6
2022-11-22T06:23:57.787Z,62.8
2022-11-22T06:26:45.109Z,59.3
2022-11-22T06:29:33.156Z,75.8
2022-11-22T06:32:20.765Z,66.7
2022-11-22T06:35:08.540Z,74.4
2022-11-22T06:38:00.548Z,73
2022-11-22T06:40:48.304Z,69.4
2022-11-22T06:43:35.589Z,65.7
2022-11-22T06:46:24.512Z,59.5
2022-11-22T06:49:12.926Z,56.5
2022-11-22T06:52:00.168Z,61.9
2022-11-22T06:54:47.697Z,62.1
2022-11-22T06:57:35.056Z,62.3
2022-11-22T07:00:22.388Z,57.2
2022-11-22T07:03:09.796Z,59.7
2022-11-22T07:05:57.136Z,63.6
2022-11-22T07:08:44.405Z,71.5
2022-11-22T07:11:32.112Z,63.8
2022-11-22T07:14:20.640Z,60.6
2022-11-22T07:17:07.973Z,61.3
2022-11-22T07:19:55.563Z,65.2
2022-11-22T07:22:43.767Z,76
2022-11-22T07:25:32.996Z,69.1
2022-11-22T07:28:20.284Z,77
2022-11-22T07:31:08.021Z,64.4
2022-11-22T07:33:57.883Z,68.5
2022-11-22T07:36:45.611Z,67.3
2022-11-22T07:39:32.962Z,64.1
2022-11-22T07:42:25.805Z,59.2
2022-11-22T07:45:13.539Z,61.1
2022-11-22T07:48:01.155Z,75.4
2022-11-22T07:50:48.984Z,68.4
2022-11-22T07:53:36.319Z,64.6
2022-11-22T07:56:23.645Z,68.7
2022-11-22T07:59:11.025Z,68.5
2022-11-22T08:01:58.385Z,69.2
2022-11-22T08:04:45.776Z,68.4
2022-11-22T08:07:33.137Z,77.8
2022-11-22T08:10:20.444Z,84.2
2022-11-22T08:13:07.732Z,78.9
2022-11-22T08:15:57.533Z,72.7
2022-11-22T08:18:49.131Z,70.3
2022-11-22T08:21:36.571Z,67.1
2022-11-22T08:24:23.913Z,65.8
2022-11-22T08:27:11.258Z,71.5
2022-11-22T08:29:58.546Z,62.9
2022-11-22T08:32:46.312Z,59
2022-11-22T08:35:36.054Z,60.6
2022-11-22T08:38:23.705Z,60.9
2022-11-22T08:41:11.354Z,69
2022-11-22T08:43:58.999Z,69.5
2022-11-22T08:46:46.365Z,74.3
2022-11-22T08:49:33.836Z,61.5
2022-11-22T08:52:21.569Z,65.7
2022-11-22T08:55:09.300Z,67.5
2022-11-22T08:57:56.872Z,59.3
2022-11-22T09:00:44.831Z,65.7
2022-11-22T09:03:32.225Z,72.3
2022-11-22T09:09:38.380Z,61.4
2022-11-22T09:12:25.949Z,83.6
2022-11-22T09:15:13.553Z,51.6
2022-11-22T09:18:01.089Z,51.4
2022-11-22T09:20:49.143Z,49.3
2022-11-22T09:23:44.015Z,44.9
2022-11-22T09:26:33.578Z,45.3
2022-11-22T09:29:21.019Z,41.6
2022-11-22T09:32:09.855Z,42.6
2022-11-22T09:34:57.319Z,50.3
2022-11-22T09:37:44.819Z,43.5
2022-11-22T09:40:32.860Z,49.8
2022-11-22T09:43:21.547Z,42.7
2022-11-22T09:46:21.799Z,41
2022-11-22T09:49:20.490Z,46.7
2022-11-22T09:52:14.061Z,50.6
2022-11-22T09:55:08.358Z,40.4
2022-11-22T09:58:07.661Z,48.7
2022-11-22T10:01:05.468Z,47.2
2022-11-22T10:03:58.222Z,44.7
2022-11-22T10:06:50.473Z,42.7
2022-11-22T10:09:42.472Z,44.6
2022-11-22T10:12:40.616Z,46.1
2022-11-22T10:15:33.629Z,48.4
2022-11-22T10:18:29.462Z,49.1
2022-11-22T10:21:23.795Z,52.7
2022-11-22T10:24:11.827Z,48.7
2022-11-22T10:27:01.404Z,46.9
2022-11-22T10:29:54.319Z,45.9
2022-11-22T10:32:47.861Z,40.5
2022-11-22T10:35:45.402Z,53.9
2022-11-22T10:38:45.000Z,49.6
2022-11-22T10:41:47.632Z,50.5
2022-11-22T10:44:50.719Z,51.8
2022-11-22T10:47:45.089Z,51.1
2022-11-22T10:50:44.340Z,48.9
2022-11-22T10:53:43.365Z,49.7
2022-11-22T10:56:41.513Z,46.7
2022-11-22T10:59:35.346Z,45.7
2022-11-22T11:02:38.444Z,57.3
2022-11-22T11:06:07.983Z,62.7
2022-11-22T11:12:40.983Z,56.8
2022-11-22T11:15:32.705Z,52.3
2022-11-22T11:18:24.331Z,92.9
2022-11-22T11:21:16.014Z,58
2022-11-22T11:24:03.407Z,52.6
2022-11-22T11:26:57.895Z,48.1
2022-11-22T11:29:45.924Z,48.7
2022-11-22T11:32:39.396Z,45.2
2022-11-22T11:35:37.538Z,47.8
2022-11-22T11:38:26.496Z,51.2
2022-11-22T11:41:17.424Z,53.8
2022-11-22T11:44:10.192Z,52.4
2022-11-22T11:47:12.470Z,49.9
2022-11-22T11:50:05.676Z,55.7
2022-11-22T11:53:03.389Z,51
2022-11-22T11:56:00.850Z,56
2022-11-22T11:59:06.363Z,50.8
2022-11-22T12:01:59.470Z,48.4
2022-11-22T12:04:56.112Z,49.9
2022-11-22T12:07:47.885Z,45.7
2022-11-22T12:10:35.367Z,47.9
2022-11-22T12:13:32.373Z,50
2022-11-22T12:16:26.778Z,48.8
2022-11-22T12:19:21.633Z,46.7
2022-11-22T12:22:29.559Z,54.3
2022-11-22T12:25:49.844Z,49.5
2022-11-22T12:28:41.369Z,52.4
2022-11-22T12:31:29.139Z,51.2
2022-11-22T12:34:21.559Z,50.9
2022-11-22T12:37:13.651Z,53
2022-11-22T12:40:05.059Z,68.6
2022-11-22T12:43:01.632Z,58.3
2022-11-22T12:45:53.496Z,58.1
2022-11-22T12:48:49.039Z,55
2022-11-22T12:51:41.004Z,69.2
2022-11-22T12:54:32.120Z,56.2
2022-11-22T12:57:25.505Z,54
2022-11-22T13:00:23.609Z,51.1
2022-11-22T13:03:17.245Z,51.7
2022-11-22T13:06:11.886Z,58.9
2022-11-22T13:09:04.857Z,66.7
2022-11-22T13:11:59.081Z,60.2
2022-11-22T13:14:50.950Z,54.6
2022-11-22T13:17:40.886Z,52.1
2022-11-22T13:20:28.496Z,55.2
2022-11-22T13:23:21.943Z,55.3
2022-11-22T13:26:24.358Z,64.4
2022-11-22T13:29:21.338Z,54.3
2022-11-22T13:32:12.003Z,55.7
2022-11-22T13:35:05.008Z,51.4
2022-11-22T13:38:07.042Z,54.4
2022-11-22T13:41:01.333Z,61.6
2022-11-22T13:44:09.351Z,59.1
2022-11-22T13:47:23.594Z,61.6
2022-11-22T13:50:28.486Z,56.5
2022-11-22T13:53:47.587Z,54.8
2022-11-22T13:56:35.354Z,62.4
2022-11-22T13:59:45.469Z,56.1
2022-11-22T14:02:32.873Z,57.9
2022-11-22T14:05:21.396Z,56.3
2022-11-22T14:08:18.125Z,59.5
2022-11-22T14:11:18.113Z,62.9
2022-11-22T14:14:22.616Z,57
2022-11-22T14:17:20.049Z,58.8
2022-11-22T14:20:16.432Z,58
2022-11-22T14:27:30.800Z,54
2022-11-22T14:30:45.022Z,62.1
2022-11-22T14:33:42.705Z,65.7
2022-11-22T14:37:01.262Z,64.8
2022-11-22T14:40:29.524Z,62.1
2022-11-22T14:43:20.979Z,59
2022-11-22T14:46:37.158Z,60.1
2022-11-22T14:49:40.943Z,59.6
2022-11-22T14:52:31.099Z,59.2
2022-11-22T14:55:20.940Z,61.2
2022-11-22T14:58:12.445Z,67.1
2022-11-22T15:01:07.692Z,67.2
2022-11-22T15:09:11.231Z,59.1
2022-11-22T15:12:41.813Z,55.9
2022-11-22T16:00:12.590Z,58.3
2022-11-22T16:03:06.357Z,64.3
2022-11-22T16:06:12.168Z,58.5
2022-11-22T16:09:02.696Z,64.4
2022-11-22T16:11:50.900Z,55.3
2022-11-22T16:14:45.525Z,56.4
2022-11-22T16:17:35.456Z,59.9
2022-11-22T16:20:23.270Z,58.4
2022-11-22T16:23:15.731Z,60.5
2022-11-22T16:26:10.971Z,57.5
2022-11-22T16:29:06.649Z,62.7
2022-11-22T16:32:10.603Z,65.1
2022-11-22T16:35:27.653Z,54.6
2022-11-22T16:38:16.238Z,53.7
2022-11-22T16:41:03.579Z,58.1
2022-11-22T16:43:57.771Z,61.4
2022-11-22T16:46:47.470Z,58.5
2022-11-22T16:49:34.900Z,56.2
2022-11-22T16:52:22.280Z,55.8
2022-11-22T16:55:10.369Z,57.8
2022-11-22T16:58:00.864Z,61
2022-11-22T17:00:58.588Z,54.2
2022-11-22T17:03:46.799Z,57.9
2022-11-22T17:06:36.945Z,55.5
2022-11-22T17:09:25.542Z,51.9
2022-11-22T17:12:12.897Z,48.7
2022-11-22T17:15:07.359Z,53.2
2022-11-22T17:18:00.639Z,58.4
2022-11-22T17:20:48.089Z,65.8
2022-11-22T17:23:35.603Z,62.2
2022-11-22T17:26:23.848Z,51.6
2022-11-22T17:29:34.913Z,60.5
2022-11-22T17:32:31.687Z,62.2
2022-11-22T17:35:19.728Z,57.6
2022-11-22T17:38:07.076Z,53.9
2022-11-22T17:40:56.404Z,63.5
2022-11-22T17:43:44.639Z,60.6
2022-11-22T17:46:32.184Z,72.9
2022-11-22T17:49:22.848Z,70.4
2022-11-22T17:52:10.218Z,65.6
2022-11-22T17:55:02.046Z,57.6
2022-11-22T17:57:55.919Z,62.9
2022-11-22T18:00:43.378Z,59.5
2022-11-22T18:03:30.846Z,61.3
2022-11-22T18:06:19.129Z,63
2022-11-22T18:09:06.838Z,58.7
2022-11-22T18:11:54.618Z,66.3
2022-11-22T18:14:43.075Z,59.2
2022-11-22T18:17:31.796Z,61.6
2022-11-22T18:20:19.837Z,69.1
2022-11-22T18:23:07.245Z,68.5
2022-11-22T18:26:02.042Z,69.6
2022-11-22T18:29:39.113Z,60
2022-11-22T18:32:28.899Z,62.8
2022-11-22T18:35:16.295Z,69.9
2022-11-22T18:38:03.628Z,57.9
2022-11-22T18:40:51.028Z,60.3
2022-11-22T18:43:38.435Z,64.2
2022-11-22T18:46:25.807Z,66.2
2022-11-22T18:49:13.135Z,65
2022-11-22T18:52:00.539Z,67.9
2022-11-22T18:54:48.093Z,63.2
2022-11-22T18:57:36.163Z,68.6
2022-11-22T19:00:23.637Z,66
2022-11-22T19:03:11.002Z,63.9
2022-11-22T19:05:58.624Z,70.3
2022-11-22T19:08:49.038Z,62.2
2022-11-22T19:11:36.566Z,72.8
2022-11-22T19:14:24.433Z,68.9
2022-11-22T19:17:13.077Z,67.1
2022-11-22T19:20:00.438Z,68.1
2022-11-22T19:22:49.109Z,62.9
2022-11-22T19:25:37.037Z,63.3
2022-11-22T19:28:26.977Z,66.5
2022-11-22T19:31:14.712Z,64.7
2022-11-22T19:34:04.180Z,68.7
2022-11-22T19:36:51.582Z,69.5
2022-11-22T19:39:39.070Z,64.7
2022-11-22T19:42:26.423Z,64.1
2022-11-22T19:45:17.926Z,75.4
2022-11-22T19:48:05.255Z,74.6
2022-11-22T19:50:52.604Z,72.4
2022-11-22T19:53:41.147Z,63.7
2022-11-22T19:56:28.911Z,71.4
2022-11-22T19:59:18.631Z,71.2
2022-11-22T20:02:05.957Z,63.6
2022-11-22T20:04:54.219Z,61
2022-11-22T20:07:43.349Z,69.5
2022-11-22T20:10:30.979Z,67.9
2022-11-22T20:13:18.251Z,65.1
2022-11-22T20:16:05.486Z,64.7
2022-11-22T20:18:55.615Z,61.8
2022-11-22T20:21:45.011Z,59
2022-11-22T20:24:34.295Z,67
2022-11-22T20:27:24.639Z,58.9
2022-11-22T20:30:13.895Z,66.7
2022-11-22T20:33:01.869Z,59.4
2022-11-22T20:35:49.232Z,64.7
2022-11-22T20:38:36.604Z,59.1
2022-11-22T20:41:25.732Z,59.3
2022-11-22T20:44:15.057Z,61.8
2022-11-22T20:47:02.416Z,61.3
2022-11-22T20:49:49.825Z,62.1
2022-11-22T20:52:37.210Z,56.6
2022-11-22T20:55:24.588Z,57.5
2022-11-22T20:58:12.136Z,58.8
2022-11-22T21:00:59.551Z,57.5
2022-11-22T21:03:51.042Z,53
2022-11-22T21:06:40.323Z,57.6
2022-11-22T21:09:28.055Z,63.4
2022-11-22T21:12:15.752Z,54.6
2022-11-22T21:15:03.758Z,58.7
2022-11-22T21:18:17.630Z,63.4
2022-11-22T21:21:14.845Z,60.4
2022-11-22T21:24:07.141Z,58.6
2022-11-22T21:26:57.453Z,61.5
2022-11-22T21:29:44.781Z,57.5
2022-11-22T21:32:32.073Z,56.6
2022-11-22T21:35:19.526Z,61.4
2022-11-22T21:38:06.888Z,59
2022-11-22T21:41:05.594Z,63.7
2022-11-22T21:44:11.570Z,62.2
2022-11-22T21:46:59.020Z,62.3
2022-11-22T21:49:47.053Z,63.4
2022-11-22T21:52:35.680Z,58.5
2022-11-22T21:55:23.008Z,62.9
2022-11-22T21:58:10.423Z,63.6
2022-11-22T22:00:57.855Z,59.1
2022-11-22T22:03:48.058Z,57.1
2022-11-22T22:06:35.613Z,62.6
2022-11-22T22:09:22.980Z,54.9
2022-11-22T22:12:10.492Z,59.3
2022-11-22T22:14:57.928Z,62.8
2022-11-22T22:17:45.176Z,57.6
2022-11-22T22:20:32.391Z,63.8
2022-11-22T22:23:19.716Z,59.9
2022-11-22T22:26:08.844Z,60.6
2022-11-22T22:28:58.587Z,58.9
2022-11-22T22:31:45.956Z,55.3
2022-11-22T22:34:33.117Z,52.4
2022-11-22T22:37:20.884Z,54
2022-11-22T22:40:08.196Z,64.2
2022-11-22T22:42:56.483Z,61.5
2022-11-22T22:45:44.150Z,65.4
2022-11-22T22:48:31.507Z,55.5
2022-11-22T22:51:19.357Z,54.7
2022-11-22T22:54:08.902Z,54.5
2022-11-22T22:56:56.348Z,57.6
2022-11-22T22:59:43.660Z,61
2022-11-22T23:02:30.989Z,55.8
2022-11-22T23:05:18.405Z,53.4
2022-11-22T23:08:05.967Z,56.5
2022-11-22T23:10:55.593Z,58.2
2022-11-22T23:13:48.121Z,51.5
2022-11-22T23:16:35.723Z,51.3
2022-11-22T23:19:23.175Z,57.8
2022-11-22T23:22:12.033Z,53.8
2022-11-22T23:24:59.342Z,56.6
2022-11-22T23:27:46.638Z,61.3
2022-11-22T23:30:33.858Z,58.2
2022-11-22T23:33:21.231Z,54.4
2022-11-22T23:36:08.862Z,57
2022-11-22T23:38:58.723Z,57.5
2022-11-22T23:41:46.057Z,54.3
2022-11-22T23:44:33.526Z,48.7
2022-11-22T23:47:20.867Z,52.6
2022-11-22T23:50:08.140Z,53.2
2022-11-22T23:52:55.713Z,61
2022-11-22T23:55:45.542Z,54.6
2022-11-22T23:58:32.869Z,58.3
